Terminal Aerodrome Forecast
Issued by NWS Lake Charles, LA

Home | Current Version | Previous Version | Text Only | Print | Product List | Glossary On
Versions: 1 2 3 4 5 6 7 8 9 10 11 12 13 14 15 16 17 18 19 20 21 22
000
FTUS44 KLCH 210000 AAA
TAFLFT
TAF AMD
KLFT 210029Z 2100/2124 04008KT P6SM SKC
     FM210600 04004KT P6SM SCT015
      TEMPO 2110/2114 BKN015
     FM211500 08006KT P6SM SCT025 BKN035=

USA.gov is the U.S. government's official web portal to all federal, state and local government web resources and services.